createdAt,value
2022-12-08T00:00:54.202Z,7.83
2022-12-08T00:03:59.638Z,9.43
2022-12-08T00:07:21.731Z,11.88
2022-12-08T00:10:48.467Z,11.05
2022-12-08T00:13:48.128Z,8.20
2022-12-08T00:16:51.301Z,6.40
2022-12-08T00:19:54.361Z,7.93
2022-12-08T00:22:58.699Z,9.40
2022-12-08T00:26:04.352Z,6.30
2022-12-08T00:29:10.875Z,6.10
2022-12-08T00:32:16.301Z,6.90
2022-12-08T00:35:19.642Z,5.30
2022-12-08T00:38:24.078Z,6.28
2022-12-08T00:41:46.260Z,5.53
2022-12-08T00:44:49.242Z,5.72
2022-12-08T00:47:52.332Z,5.93
2022-12-08T00:50:55.331Z,7.00
2022-12-08T00:53:59.695Z,7.20
2022-12-08T00:57:02.816Z,6.18
2022-12-08T01:00:07.769Z,5.57
2022-12-08T01:03:11.636Z,7.20
2022-12-08T01:09:19.792Z,5.78
2022-12-08T01:12:22.970Z,6.07
2022-12-08T01:15:25.912Z,6.72
2022-12-08T01:18:30.208Z,6.03
2022-12-08T01:21:33.708Z,5.65
2022-12-08T01:24:37.962Z,9.35
2022-12-08T01:27:40.903Z,8.48
2022-12-08T01:30:43.874Z,8.13
2022-12-08T01:33:48.964Z,6.73
2022-12-08T01:36:52.014Z,7.28
2022-12-08T01:39:56.413Z,10.07
2022-12-08T01:42:59.503Z,6.82
2022-12-08T01:46:02.445Z,6.90
2022-12-08T01:49:09.909Z,10.23
2022-12-08T01:52:17.838Z,5.68
2022-12-08T01:55:27.343Z,6.25
2022-12-08T01:58:36.186Z,9.48
2022-12-08T02:01:39.753Z,7.80
2022-12-08T02:04:43.073Z,8.13
2022-12-08T02:07:47.621Z,7.72
2022-12-08T02:10:53.443Z,5.85
2022-12-08T02:13:59.863Z,6.43
2022-12-08T02:17:17.697Z,9.45
2022-12-08T02:20:35.634Z,5.60
2022-12-08T02:23:54.624Z,8.52
2022-12-08T02:27:30.751Z,5.88
2022-12-08T02:30:48.230Z,5.85
2022-12-08T02:34:28.851Z,8.65
2022-12-08T02:37:38.874Z,6.63
2022-12-08T02:40:53.381Z,7.45
2022-12-08T02:44:06.085Z,9.27
2022-12-08T02:47:14.842Z,8.50
2022-12-08T02:50:20.017Z,10.30
2022-12-08T02:53:23.031Z,8.02
2022-12-08T02:56:54.479Z,13.93
2022-12-08T03:00:08.592Z,10.77
2022-12-08T03:03:26.164Z,10.45
2022-12-08T03:06:38.986Z,8.18
2022-12-08T03:09:50.985Z,10.07
2022-12-08T03:13:01.846Z,8.05
2022-12-08T03:16:09.064Z,9.30
2022-12-08T03:19:19.988Z,8.40
2022-12-08T03:22:28.670Z,9.25
2022-12-08T03:25:37.806Z,9.55
2022-12-08T03:28:41.389Z,7.70
2022-12-08T03:31:51.854Z,11.07
2022-12-08T03:34:56.910Z,9.52
2022-12-08T03:38:07.049Z,5.75
2022-12-08T03:41:19.349Z,5.05
2022-12-08T03:44:22.300Z,7.40
2022-12-08T03:47:25.494Z,7.53
2022-12-08T03:50:28.809Z,8.43
2022-12-08T03:53:33.100Z,11.45
2022-12-08T03:56:39.228Z,7.03
2022-12-08T03:59:42.355Z,4.68
2022-12-08T04:02:45.548Z,6.75
2022-12-08T04:05:48.515Z,11.98
2022-12-08T04:08:53.889Z,8.07
2022-12-08T04:11:56.924Z,10.45
2022-12-08T04:14:59.905Z,6.23
2022-12-08T04:18:02.869Z,8.10
2022-12-08T04:21:06.283Z,6.43
2022-12-08T04:24:10.964Z,10.00
2022-12-08T04:27:14.021Z,11.55
2022-12-08T04:30:17.315Z,8.90
2022-12-08T04:33:20.439Z,8.60
2022-12-08T04:36:23.505Z,6.60
2022-12-08T04:39:27.847Z,10.00
2022-12-08T04:42:30.838Z,6.38
2022-12-08T04:45:34.131Z,6.13
2022-12-08T04:48:39.715Z,5.28
2022-12-08T04:51:42.647Z,6.00
2022-12-08T04:54:47.014Z,6.67
2022-12-08T04:57:50.162Z,6.72
2022-12-08T05:00:53.244Z,8.25
2022-12-08T05:03:56.316Z,6.95
2022-12-08T05:06:59.553Z,8.27
2022-12-08T05:10:04.377Z,5.78
2022-12-08T05:13:07.620Z,9.07
2022-12-08T05:16:13.560Z,7.67
2022-12-08T05:19:17.749Z,7.63
2022-12-08T05:22:20.663Z,5.78
2022-12-08T05:25:25.048Z,5.83
2022-12-08T05:28:44.204Z,4.95
2022-12-08T05:31:47.522Z,5.28
2022-12-08T05:34:50.532Z,5.93
2022-12-08T05:37:53.911Z,5.00
2022-12-08T05:40:58.554Z,5.50
2022-12-08T05:44:01.473Z,7.32
2022-12-08T05:47:04.710Z,6.17
2022-12-08T05:50:09.135Z,8.15
2022-12-08T05:53:12.031Z,6.32
2022-12-08T05:56:16.635Z,7.27
2022-12-08T05:59:19.592Z,11.57
2022-12-08T06:02:22.675Z,9.10
2022-12-08T06:05:25.684Z,9.02
2022-12-08T06:08:28.758Z,6.32
2022-12-08T06:11:34.634Z,7.53
2022-12-08T06:14:38.415Z,10.18
2022-12-08T06:17:41.570Z,9.98
2022-12-08T06:20:45.711Z,5.35
2022-12-08T06:23:50.972Z,8.93
2022-12-08T06:26:55.345Z,6.78
2022-12-08T06:29:58.512Z,7.65
2022-12-08T06:33:01.561Z,9.70
2022-12-08T06:36:04.899Z,11.07
2022-12-08T06:39:07.906Z,6.75
2022-12-08T06:42:30.189Z,10.57
2022-12-08T06:45:33.197Z,8.27
2022-12-08T06:48:36.444Z,9.13
2022-12-08T06:51:39.488Z,8.52
2022-12-08T06:54:42.616Z,10.37
2022-12-08T06:57:47.063Z,7.03
2022-12-08T07:00:50.203Z,8.15
2022-12-08T07:03:53.233Z,9.23
2022-12-08T07:06:56.133Z,9.53
2022-12-08T07:09:59.520Z,11.27
2022-12-08T07:13:04.101Z,11.80
2022-12-08T07:16:09.250Z,12.45
2022-12-08T07:19:12.445Z,13.02
2022-12-08T07:22:15.376Z,9.02
2022-12-08T07:25:19.236Z,8.57
2022-12-08T07:28:23.773Z,11.00
2022-12-08T07:31:28.518Z,13.90
2022-12-08T07:34:31.555Z,11.82
2022-12-08T07:37:35.836Z,14.10
2022-12-08T07:40:40.120Z,15.10
2022-12-08T07:43:45.398Z,15.10
2022-12-08T07:46:48.400Z,12.15
2022-12-08T07:49:51.396Z,14.30
2022-12-08T07:52:54.491Z,19.73
2022-12-08T07:55:57.405Z,14.07
2022-12-08T07:59:03.045Z,14.80
2022-12-08T08:02:23.519Z,17.70
2022-12-08T08:05:27.644Z,16.02
2022-12-08T08:08:30.902Z,10.17
2022-12-08T08:11:34.234Z,14.35
2022-12-08T08:14:38.573Z,16.00
2022-12-08T08:17:41.715Z,14.77
2022-12-08T08:20:44.840Z,15.00
2022-12-08T08:23:47.951Z,15.10
2022-12-08T08:26:53.408Z,17.37
2022-12-08T08:29:58.443Z,11.77
2022-12-08T08:33:01.889Z,11.88
2022-12-08T08:36:09.125Z,12.85
2022-12-08T08:39:12.535Z,14.52
2022-12-08T08:42:15.636Z,15.65
2022-12-08T08:45:20.029Z,11.13
2022-12-08T08:48:23.125Z,11.60
2022-12-08T08:51:26.205Z,14.38
2022-12-08T08:54:30.751Z,12.50
2022-12-08T08:57:33.723Z,14.57
2022-12-08T09:00:38.110Z,11.40
2022-12-08T09:03:41.423Z,17.38
2022-12-08T09:06:45.198Z,20.48
2022-12-08T09:09:48.355Z,17.73
2022-12-08T09:12:51.434Z,16.23
2022-12-08T09:15:55.836Z,15.57
2022-12-08T09:18:59.287Z,11.90
2022-12-08T09:22:02.243Z,11.55
2022-12-08T09:25:06.242Z,16.48
2022-12-08T09:28:09.344Z,14.48
2022-12-08T09:31:14.480Z,12.43
2022-12-08T09:34:17.798Z,14.60
2022-12-08T09:37:20.789Z,13.30
2022-12-08T09:40:26.872Z,16.53
2022-12-08T09:43:59.137Z,14.75
2022-12-08T09:47:07.927Z,9.48
2022-12-08T09:50:19.413Z,12.13
2022-12-08T09:53:33.675Z,8.07
2022-12-08T09:56:40.581Z,11.88
2022-12-08T09:59:50.441Z,11.82
2022-12-08T10:02:56.412Z,7.22
2022-12-08T10:06:08.950Z,9.98
2022-12-08T10:09:31.861Z,6.57
2022-12-08T10:12:44.010Z,7.22
2022-12-08T10:15:58.547Z,9.80
2022-12-08T10:19:15.808Z,5.80
2022-12-08T10:22:24.096Z,7.32
2022-12-08T10:25:34.367Z,6.20
2022-12-08T10:28:42.959Z,6.78
2022-12-08T10:31:48.153Z,6.15
2022-12-08T10:35:07.235Z,12.10
2022-12-08T10:38:21.844Z,8.18
2022-12-08T10:41:26.212Z,12.25
2022-12-08T10:44:30.250Z,9.77
2022-12-08T10:50:46.869Z,9.52
2022-12-08T10:53:49.999Z,9.35
2022-12-08T10:56:56.795Z,7.47
2022-12-08T11:00:00.289Z,11.50
2022-12-08T11:03:05.680Z,9.38
2022-12-08T11:06:18.919Z,12.73
2022-12-08T11:09:38.032Z,6.45
2022-12-08T11:12:45.626Z,8.75
2022-12-08T11:15:48.925Z,9.85
2022-12-08T11:18:58.882Z,9.35
2022-12-08T11:22:03.860Z,5.10
2022-12-08T11:25:13.076Z,8.13
2022-12-08T11:28:18.210Z,5.40
2022-12-08T11:31:34.876Z,5.80
2022-12-08T11:34:45.592Z,7.72
2022-12-08T11:37:50.174Z,6.47
2022-12-08T11:40:58.172Z,5.18
2022-12-08T11:44:16.022Z,5.43
2022-12-08T11:47:25.519Z,5.20
2022-12-08T11:50:37.372Z,5.90
2022-12-08T11:53:51.961Z,6.47
2022-12-08T11:56:58.825Z,6.50
2022-12-08T12:00:03.374Z,7.75
2022-12-08T12:03:18.103Z,8.50
2022-12-08T12:07:08.943Z,5.93
2022-12-08T12:10:36.621Z,5.18
2022-12-08T12:14:05.340Z,6.68
2022-12-08T12:17:26.185Z,2.25
2022-12-08T12:20:36.650Z,2.47
2022-12-08T12:23:45.982Z,2.25
2022-12-08T12:26:59.718Z,4.53
2022-12-08T12:30:08.279Z,1.92
2022-12-08T12:33:18.129Z,2.58
2022-12-08T12:36:22.258Z,1.75
2022-12-08T12:39:30.909Z,7.35
2022-12-08T12:42:43.827Z,3.67
2022-12-08T12:45:46.920Z,3.10
2022-12-08T12:48:50.247Z,1.77
2022-12-08T12:51:56.470Z,4.03
2022-12-08T12:55:23.219Z,2.88
2022-12-08T12:58:40.888Z,1.58
2022-12-08T13:01:57.703Z,0.98
2022-12-08T13:05:08.819Z,3.45
2022-12-08T13:08:24.141Z,5.63
2022-12-08T13:11:28.060Z,1.48
2022-12-08T13:14:38.906Z,1.98
2022-12-08T13:17:47.899Z,3.08
2022-12-08T13:20:58.215Z,1.95
2022-12-08T13:24:27.663Z,1.83
2022-12-08T13:27:36.010Z,2.05
2022-12-08T13:30:46.748Z,2.40
2022-12-08T13:33:49.986Z,1.58
2022-12-08T13:37:05.167Z,3.47
2022-12-08T13:40:17.476Z,2.08
2022-12-08T13:43:47.263Z,1.55
2022-12-08T13:57:33.157Z,2.03
2022-12-08T14:00:36.293Z,3.35
2022-12-08T14:04:28.456Z,3.58
2022-12-08T14:07:15.871Z,2.92
2022-12-08T14:10:24.483Z,2.30
2022-12-08T14:13:27.985Z,3.85
2022-12-08T14:16:39.360Z,4.15
2022-12-08T14:19:53.257Z,4.82
2022-12-08T14:22:58.827Z,8.13
2022-12-08T14:26:03.862Z,5.90
2022-12-08T14:29:09.886Z,4.30
2022-12-08T14:32:30.608Z,7.10
2022-12-08T14:35:37.602Z,5.95
2022-12-08T14:38:40.823Z,4.88
2022-12-08T14:42:00.870Z,3.67
2022-12-08T14:45:11.941Z,3.60
2022-12-08T14:48:25.216Z,3.08
2022-12-08T14:51:32.915Z,6.93
2022-12-08T14:54:36.651Z,6.25
2022-12-08T14:57:39.693Z,7.07
2022-12-08T15:00:48.882Z,12.90
2022-12-08T15:03:52.434Z,27.65
2022-12-08T15:07:05.863Z,16.63
2022-12-08T15:10:27.093Z,15.33
2022-12-08T15:13:31.621Z,20.52
2022-12-08T15:19:44.235Z,17.42
2022-12-08T15:22:48.719Z,14.05
2022-12-08T15:25:52.275Z,13.98
2022-12-08T15:28:56.606Z,17.77
2022-12-08T15:32:03.090Z,16.02
2022-12-08T15:35:07.323Z,14.82
2022-12-08T15:38:24.619Z,19.23
2022-12-08T15:41:27.806Z,28.42
2022-12-08T15:44:32.673Z,24.90
2022-12-08T15:47:36.241Z,22.27
2022-12-08T15:50:39.240Z,23.20
2022-12-08T15:53:43.526Z,26.73
2022-12-08T15:57:18.162Z,24.83
2022-12-08T16:00:51.687Z,30.25
2022-12-08T16:07:28.213Z,22.42
2022-12-08T16:11:00.683Z,24.50
2022-12-08T16:13:59.548Z,23.00
2022-12-08T16:17:15.460Z,23.77
2022-12-08T16:20:24.290Z,26.80
2022-12-08T16:23:43.009Z,19.83
2022-12-08T16:30:17.784Z,22.33
2022-12-08T16:33:21.072Z,19.65
2022-12-08T16:36:24.139Z,22.92
2022-12-08T16:39:27.309Z,27.53
2022-12-08T16:42:48.453Z,22.17
2022-12-08T16:45:52.673Z,24.05
2022-12-08T16:48:56.914Z,21.30
2022-12-08T16:51:59.883Z,25.38
2022-12-08T16:55:03.392Z,23.50
2022-12-08T16:58:08.353Z,22.48
2022-12-08T17:01:13.046Z,25.23
2022-12-08T17:04:31.387Z,26.83
2022-12-08T17:07:35.508Z,21.63
2022-12-08T17:10:40.688Z,21.13
2022-12-08T17:13:44.960Z,13.23
2022-12-08T17:16:48.237Z,17.20
2022-12-08T17:19:51.464Z,17.75
2022-12-08T17:22:56.155Z,14.07
2022-12-08T17:26:00.244Z,12.57
2022-12-08T17:29:05.713Z,19.98
2022-12-08T17:32:08.813Z,17.38
2022-12-08T17:35:13.267Z,18.00
2022-12-08T17:38:17.307Z,16.08
2022-12-08T17:41:20.484Z,19.65
2022-12-08T17:44:25.375Z,15.50
2022-12-08T17:47:29.077Z,15.50
2022-12-08T17:50:32.136Z,19.08
2022-12-08T17:53:37.532Z,19.63
2022-12-08T17:56:40.668Z,20.40
2022-12-08T17:59:44.977Z,22.13
2022-12-08T18:02:48.037Z,20.63
2022-12-08T18:05:51.282Z,20.43
2022-12-08T18:08:54.314Z,22.38
2022-12-08T18:11:57.277Z,29.27
2022-12-08T18:15:01.819Z,26.77
2022-12-08T18:18:05.143Z,24.17
2022-12-08T18:21:08.490Z,22.10
2022-12-08T18:24:20.801Z,20.80
2022-12-08T18:27:23.952Z,20.30
2022-12-08T18:30:28.567Z,19.42
2022-12-08T18:33:31.622Z,20.85
2022-12-08T18:36:35.008Z,20.50
2022-12-08T18:39:38.462Z,22.20
2022-12-08T18:42:41.624Z,19.80
2022-12-08T18:45:46.766Z,17.42
2022-12-08T18:48:52.094Z,16.60
2022-12-08T18:51:55.206Z,17.90
2022-12-08T18:55:06.241Z,12.37
2022-12-08T18:58:10.825Z,19.10
2022-12-08T19:04:38.445Z,12.30
2022-12-08T19:07:43.185Z,13.88
2022-12-08T19:10:46.318Z,14.05
2022-12-08T19:13:49.598Z,12.83
2022-12-08T19:16:53.966Z,15.20
2022-12-08T19:19:57.032Z,16.52
2022-12-08T19:23:00.098Z,23.93
2022-12-08T19:26:03.945Z,22.53
2022-12-08T19:29:06.949Z,23.73
2022-12-08T19:32:11.890Z,23.20
2022-12-08T19:35:14.809Z,25.98
2022-12-08T19:38:18.300Z,24.07
2022-12-08T19:41:39.355Z,23.52
2022-12-08T19:44:54.588Z,26.15
2022-12-08T19:47:58.938Z,18.45
2022-12-08T19:51:01.902Z,16.55
2022-12-08T19:54:05.144Z,15.00
2022-12-08T19:57:08.097Z,14.75
2022-12-08T20:00:13.832Z,13.70
2022-12-08T20:03:22.121Z,12.68
2022-12-08T20:06:27.776Z,13.13
2022-12-08T20:09:30.812Z,11.60
2022-12-08T20:12:33.748Z,13.90
2022-12-08T20:15:36.743Z,8.90
2022-12-08T20:18:43.587Z,9.63
2022-12-08T20:21:46.790Z,10.00
2022-12-08T20:24:56.444Z,13.07
2022-12-08T20:28:02.549Z,15.60
2022-12-08T20:31:06.401Z,12.40
2022-12-08T20:34:16.110Z,12.77
2022-12-08T20:37:19.640Z,13.43
2022-12-08T20:40:22.649Z,14.80
2022-12-08T20:43:25.786Z,13.43
2022-12-08T20:46:29.198Z,14.13
2022-12-08T20:49:34.907Z,13.80
2022-12-08T20:52:38.888Z,16.95
2022-12-08T20:55:42.765Z,13.13
2022-12-08T21:01:49.364Z,11.50
2022-12-08T21:04:53.855Z,13.57
2022-12-08T21:07:57.117Z,11.35
2022-12-08T21:11:00.263Z,7.70
2022-12-08T21:14:03.332Z,9.03
2022-12-08T21:17:07.597Z,9.23
2022-12-08T21:20:12.901Z,10.95
2022-12-08T21:23:16.920Z,9.85
2022-12-08T21:29:24.862Z,9.57
2022-12-08T21:32:30.688Z,10.37
2022-12-08T21:35:35.722Z,12.73
2022-12-08T21:38:40.832Z,11.07
2022-12-08T21:42:02.251Z,13.48
2022-12-08T21:45:06.224Z,11.75
2022-12-08T21:51:16.670Z,17.55
2022-12-08T21:54:19.776Z,8.63
2022-12-08T21:57:23.088Z,11.27
2022-12-08T22:00:26.447Z,11.32
2022-12-08T22:03:29.816Z,12.13
2022-12-08T22:06:34.340Z,10.90
2022-12-08T22:09:37.785Z,10.90
2022-12-08T22:12:41.198Z,11.05
2022-12-08T22:15:44.302Z,12.05
2022-12-08T22:18:47.463Z,8.53
2022-12-08T22:21:52.179Z,7.80
2022-12-08T22:24:55.403Z,7.10
2022-12-08T22:27:58.555Z,8.52
2022-12-08T22:31:02.250Z,7.63
2022-12-08T22:34:05.334Z,7.78
2022-12-08T22:37:09.757Z,8.77
2022-12-08T22:40:13.304Z,5.90
2022-12-08T22:43:16.353Z,5.30
2022-12-08T22:46:22.816Z,5.53
2022-12-08T22:49:27.067Z,5.80
2022-12-08T22:52:31.615Z,8.43
2022-12-08T22:55:35.241Z,8.63
2022-12-08T22:58:39.888Z,8.13
2022-12-08T23:01:42.971Z,6.35
2022-12-08T23:04:46.416Z,5.03
2022-12-08T23:07:52.071Z,7.95
2022-12-08T23:10:56.013Z,6.38
2022-12-08T23:14:01.031Z,5.68
2022-12-08T23:17:04.369Z,7.15
2022-12-08T23:20:09.659Z,6.18
2022-12-08T23:23:14.858Z,7.25
2022-12-08T23:26:21.976Z,7.38
2022-12-08T23:29:25.151Z,7.22
2022-12-08T23:32:28.284Z,8.93
2022-12-08T23:35:31.320Z,11.00
2022-12-08T23:38:35.843Z,8.73
2022-12-08T23:41:38.879Z,7.53
2022-12-08T23:44:42.049Z,9.93
2022-12-08T23:47:45.115Z,7.85
2022-12-08T23:50:48.230Z,8.07
2022-12-08T23:53:52.607Z,7.83
2022-12-08T23:56:55.573Z,7.70
2022-12-08T23:59:58.835Z,6.47
